sensor_id;sensor_type;location;lat;lon;timestamp;pressure;altitude;pressure_sealevel;temperature;humidity
76257;BME280;65074;50.436;8.672;2022-11-20T00:00:54;99079.22;;;-1.58;99.39
76257;BME280;65074;50.436;8.672;2022-11-20T00:03:20;99088.16;;;-1.59;99.47
76257;BME280;65074;50.436;8.672;2022-11-20T00:05:45;99093.81;;;-1.47;100.00
76257;BME280;65074;50.436;8.672;2022-11-20T00:08:11;99079.69;;;-1.54;99.86
76257;BME280;65074;50.436;8.672;2022-11-20T00:10:37;99076.72;;;-1.51;99.89
76257;BME280;65074;50.436;8.672;2022-11-20T00:13:03;99067.63;;;-1.49;100.00
76257;BME280;65074;50.436;8.672;2022-11-20T00:15:28;99074.22;;;-1.53;98.60
76257;BME280;65074;50.436;8.672;2022-11-20T00:17:54;99067.06;;;-1.59;99.32
76257;BME280;65074;50.436;8.672;2022-11-20T00:20:19;99075.84;;;-1.66;98.97
76257;BME280;65074;50.436;8.672;2022-11-20T00:22:45;99079.47;;;-1.67;99.45
76257;BME280;65074;50.436;8.672;2022-11-20T00:25:10;99090.03;;;-1.67;100.00
76257;BME280;65074;50.436;8.672;2022-11-20T00:27:36;99092.03;;;-1.69;98.79
76257;BME280;65074;50.436;8.672;2022-11-20T00:30:02;99080.94;;;-1.65;99.32
76257;BME280;65074;50.436;8.672;2022-11-20T00:32:28;99081.41;;;-1.61;99.81
76257;BME280;65074;50.436;8.672;2022-11-20T00:34:54;99072.97;;;-1.57;99.00
76257;BME280;65074;50.436;8.672;2022-11-20T00:37:19;99070.97;;;-1.55;99.29
76257;BME280;65074;50.436;8.672;2022-11-20T00:39:44;99061.22;;;-1.69;98.47
76257;BME280;65074;50.436;8.672;2022-11-20T00:42:10;99073.94;;;-1.58;99.65
76257;BME280;65074;50.436;8.672;2022-11-20T00:44:35;99082.88;;;-1.59;99.50
76257;BME280;65074;50.436;8.672;2022-11-20T00:47:00;99074.13;;;-1.59;99.62
76257;BME280;65074;50.436;8.672;2022-11-20T00:49:29;99060.66;;;-1.64;99.13
76257;BME280;65074;50.436;8.672;2022-11-20T00:51:57;99056.25;;;-1.49;99.61
76257;BME280;65074;50.436;8.672;2022-11-20T00:54:22;99040.84;;;-1.46;99.09
76257;BME280;65074;50.436;8.672;2022-11-20T00:56:48;99057.13;;;-1.57;97.92
76257;BME280;65074;50.436;8.672;2022-11-20T00:59:13;99049.28;;;-1.65;98.36
76257;BME280;65074;50.436;8.672;2022-11-20T01:01:38;99053.72;;;-1.80;98.42
76257;BME280;65074;50.436;8.672;2022-11-20T01:04:04;99056.00;;;-1.77;99.10
76257;BME280;65074;50.436;8.672;2022-11-20T01:06:32;99044.72;;;-1.85;99.43
76257;BME280;65074;50.436;8.672;2022-11-20T01:09:01;99047.06;;;-1.90;99.57
76257;BME280;65074;50.436;8.672;2022-11-20T01:11:29;99050.69;;;-1.91;100.00
76257;BME280;65074;50.436;8.672;2022-11-20T01:13:56;99059.44;;;-1.91;100.00
76257;BME280;65074;50.436;8.672;2022-11-20T01:16:25;99053.81;;;-1.88;100.00
76257;BME280;65074;50.436;8.672;2022-11-20T01:18:53;99056.88;;;-1.84;100.00
76257;BME280;65074;50.436;8.672;2022-11-20T01:21:24;99067.34;;;-1.91;100.00
76257;BME280;65074;50.436;8.672;2022-11-20T01:23:50;99063.53;;;-1.88;100.00
76257;BME280;65074;50.436;8.672;2022-11-20T01:26:19;99065.63;;;-1.84;100.00
76257;BME280;65074;50.436;8.672;2022-11-20T01:28:44;99071.88;;;-1.85;100.00
76257;BME280;65074;50.436;8.672;2022-11-20T01:31:37;99067.63;;;-1.86;100.00
76257;BME280;65074;50.436;8.672;2022-11-20T01:34:04;99061.03;;;-1.90;100.00
76257;BME280;65074;50.436;8.672;2022-11-20T01:36:32;99058.06;;;-1.87;100.00
76257;BME280;65074;50.436;8.672;2022-11-20T01:39:00;99067.63;;;-1.86;100.00
76257;BME280;65074;50.436;8.672;2022-11-20T01:41:28;99053.91;;;-1.81;100.00
76257;BME280;65074;50.436;8.672;2022-11-20T01:44:50;99052.44;;;-1.84;100.00
76257;BME280;65074;50.436;8.672;2022-11-20T01:47:35;99052.97;;;-1.88;100.00
76257;BME280;65074;50.436;8.672;2022-11-20T01:50:12;99042.38;;;-1.80;100.00
76257;BME280;65074;50.436;8.672;2022-11-20T01:53:01;99044.53;;;-1.84;100.00
76257;BME280;65074;50.436;8.672;2022-11-20T01:55:34;99045.78;;;-1.94;100.00
76257;BME280;65074;50.436;8.672;2022-11-20T01:58:01;99055.13;;;-1.92;100.00
76257;BME280;65074;50.436;8.672;2022-11-20T02:00:27;99062.50;;;-1.87;100.00
76257;BME280;65074;50.436;8.672;2022-11-20T02:02:59;99048.44;;;-1.80;100.00
76257;BME280;65074;50.436;8.672;2022-11-20T02:05:36;99058.06;;;-1.87;100.00
76257;BME280;65074;50.436;8.672;2022-11-20T02:08:05;99048.97;;;-1.84;100.00
76257;BME280;65074;50.436;8.672;2022-11-20T02:10:32;99045.00;;;-1.80;100.00
76257;BME280;65074;50.436;8.672;2022-11-20T02:12:58;99048.63;;;-1.81;100.00
76257;BME280;65074;50.436;8.672;2022-11-20T02:15:42;99044.25;;;-1.89;100.00
76257;BME280;65074;50.436;8.672;2022-11-20T02:18:09;99047.81;;;-1.82;100.00
76257;BME280;65074;50.436;8.672;2022-11-20T02:20:35;99048.97;;;-1.84;100.00
76257;BME280;65074;50.436;8.672;2022-11-20T02:23:09;99047.81;;;-1.82;100.00
76257;BME280;65074;50.436;8.672;2022-11-20T02:25:38;99040.72;;;-1.81;100.00
76257;BME280;65074;50.436;8.672;2022-11-20T02:28:07;99039.25;;;-1.84;99.76
76257;BME280;65074;50.436;8.672;2022-11-20T02:30:32;99041.34;;;-1.79;100.00
76257;BME280;65074;50.436;8.672;2022-11-20T02:32:58;99035.72;;;-1.76;100.00
76257;BME280;65074;50.436;8.672;2022-11-20T02:37:50;99026.38;;;-1.79;99.86
76257;BME280;65074;50.436;8.672;2022-11-20T02:40:18;99029.28;;;-1.74;99.64
76257;BME280;65074;50.436;8.672;2022-11-20T02:42:43;99031.28;;;-1.76;99.82
76257;BME280;65074;50.436;8.672;2022-11-20T02:45:09;99031.19;;;-1.68;99.87
76257;BME280;65074;50.436;8.672;2022-11-20T02:47:35;99025.41;;;-1.63;100.00
76257;BME280;65074;50.436;8.672;2022-11-20T02:50:00;99023.75;;;-1.50;99.76
76257;BME280;65074;50.436;8.672;2022-11-20T02:52:26;99012.50;;;-1.58;98.88
76257;BME280;65074;50.436;8.672;2022-11-20T02:54:52;99012.03;;;-1.62;99.13
76257;BME280;65074;50.436;8.672;2022-11-20T02:57:17;99028.53;;;-1.68;98.94
76257;BME280;65074;50.436;8.672;2022-11-20T02:59:43;99025.19;;;-1.76;99.39
76257;BME280;65074;50.436;8.672;2022-11-20T03:02:08;99036.38;;;-1.74;100.00
76257;BME280;65074;50.436;8.672;2022-11-20T03:04:33;99037.28;;;-1.67;99.97
76257;BME280;65074;50.436;8.672;2022-11-20T03:06:59;99034.50;;;-1.66;100.00
76257;BME280;65074;50.436;8.672;2022-11-20T03:09:24;99032.00;;;-1.67;100.00
76257;BME280;65074;50.436;8.672;2022-11-20T03:11:49;99031.56;;;-1.71;100.00
76257;BME280;65074;50.436;8.672;2022-11-20T03:14:15;99015.66;;;-1.63;100.00
76257;BME280;65074;50.436;8.672;2022-11-20T03:16:40;99021.19;;;-1.58;100.00
76257;BME280;65074;50.436;8.672;2022-11-20T03:19:06;99028.31;;;-1.58;100.00
76257;BME280;65074;50.436;8.672;2022-11-20T03:21:35;99018.03;;;-1.53;100.00
76257;BME280;65074;50.436;8.672;2022-11-20T03:24:01;99019.03;;;-1.54;100.00
76257;BME280;65074;50.436;8.672;2022-11-20T03:26:26;99027.66;;;-1.60;100.00
76257;BME280;65074;50.436;8.672;2022-11-20T03:28:57;99015.19;;;-1.66;100.00
76257;BME280;65074;50.436;8.672;2022-11-20T03:31:31;99019.75;;;-1.60;100.00
76257;BME280;65074;50.436;8.672;2022-11-20T03:33:58;99007.84;;;-1.56;100.00
76257;BME280;65074;50.436;8.672;2022-11-20T03:36:24;99010.50;;;-1.56;100.00
76257;BME280;65074;50.436;8.672;2022-11-20T03:38:49;99012.28;;;-1.57;99.49
76257;BME280;65074;50.436;8.672;2022-11-20T03:41:20;99010.84;;;-1.59;99.93
76257;BME280;65074;50.436;8.672;2022-11-20T03:43:57;99012.28;;;-1.57;99.88
76257;BME280;65074;50.436;8.672;2022-11-20T03:46:23;99007.72;;;-1.63;99.87
76257;BME280;65074;50.436;8.672;2022-11-20T03:48:49;99003.91;;;-1.60;100.00
76257;BME280;65074;50.436;8.672;2022-11-20T03:51:26;98998.28;;;-1.57;100.00
76257;BME280;65074;50.436;8.672;2022-11-20T03:53:54;98989.81;;;-1.53;100.00
76257;BME280;65074;50.436;8.672;2022-11-20T03:56:23;98990.50;;;-1.51;99.72
76257;BME280;65074;50.436;8.672;2022-11-20T03:58:48;98989.94;;;-1.46;100.00
76257;BME280;65074;50.436;8.672;2022-11-20T04:01:19;98987.09;;;-1.45;100.00
76257;BME280;65074;50.436;8.672;2022-11-20T04:03:45;98991.41;;;-1.44;99.74
76257;BME280;65074;50.436;8.672;2022-11-20T04:06:23;98988.84;;;-1.37;100.00
76257;BME280;65074;50.436;8.672;2022-11-20T04:08:50;98985.84;;;-1.34;100.00
76257;BME280;65074;50.436;8.672;2022-11-20T04:11:20;98990.50;;;-1.36;100.00
76257;BME280;65074;50.436;8.672;2022-11-20T04:13:48;98991.81;;;-1.40;100.00
76257;BME280;65074;50.436;8.672;2022-11-20T04:16:15;98986.66;;;-1.34;100.00
76257;BME280;65074;50.436;8.672;2022-11-20T04:18:41;98988.84;;;-1.37;100.00
76257;BME280;65074;50.436;8.672;2022-11-20T04:21:07;98993.66;;;-1.41;100.00
76257;BME280;65074;50.436;8.672;2022-11-20T04:23:32;98982.28;;;-1.41;100.00
76257;BME280;65074;50.436;8.672;2022-11-20T04:26:06;98982.00;;;-1.32;100.00
76257;BME280;65074;50.436;8.672;2022-11-20T04:28:32;98975.00;;;-1.24;100.00
76257;BME280;65074;50.436;8.672;2022-11-20T04:31:12;98972.94;;;-1.44;100.00
76257;BME280;65074;50.436;8.672;2022-11-20T04:33:38;98978.00;;;-1.42;100.00
76257;BME280;65074;50.436;8.672;2022-11-20T04:36:12;98977.03;;;-1.41;100.00
76257;BME280;65074;50.436;8.672;2022-11-20T04:38:38;98972.91;;;-1.29;100.00
76257;BME280;65074;50.436;8.672;2022-11-20T04:41:06;98973.53;;;-1.12;100.00
76257;BME280;65074;50.436;8.672;2022-11-20T04:43:32;98964.22;;;-1.08;100.00
76257;BME280;65074;50.436;8.672;2022-11-20T04:45:59;98969.09;;;-1.26;100.00
76257;BME280;65074;50.436;8.672;2022-11-20T04:48:26;98966.44;;;-1.26;100.00
76257;BME280;65074;50.436;8.672;2022-11-20T04:50:52;98961.16;;;-1.12;100.00
76257;BME280;65074;50.436;8.672;2022-11-20T04:53:18;98968.72;;;-1.23;100.00
76257;BME280;65074;50.436;8.672;2022-11-20T04:55:43;98977.44;;;-1.23;100.00
76257;BME280;65074;50.436;8.672;2022-11-20T04:58:08;98973.91;;;-1.30;100.00
76257;BME280;65074;50.436;8.672;2022-11-20T05:00:34;98986.75;;;-1.27;100.00
76257;BME280;65074;50.436;8.672;2022-11-20T05:03:00;98984.66;;;-1.32;100.00
76257;BME280;65074;50.436;8.672;2022-11-20T05:05:25;98992.94;;;-1.35;100.00
76257;BME280;65074;50.436;8.672;2022-11-20T05:07:51;98977.19;;;-1.28;100.00
76257;BME280;65074;50.436;8.672;2022-11-20T05:10:16;98985.53;;;-1.10;100.00
76257;BME280;65074;50.436;8.672;2022-11-20T05:12:42;98976.53;;;-1.15;100.00
76257;BME280;65074;50.436;8.672;2022-11-20T05:15:07;98977.09;;;-1.20;100.00
76257;BME280;65074;50.436;8.672;2022-11-20T05:17:33;98977.00;;;-1.26;100.00
76257;BME280;65074;50.436;8.672;2022-11-20T05:19:58;98976.78;;;-1.10;100.00
76257;BME280;65074;50.436;8.672;2022-11-20T05:22:24;98981.44;;;-1.12;100.00
76257;BME280;65074;50.436;8.672;2022-11-20T05:24:49;98980.34;;;-1.18;100.00
76257;BME280;65074;50.436;8.672;2022-11-20T05:27:15;98974.00;;;-1.23;100.00
76257;BME280;65074;50.436;8.672;2022-11-20T05:29:40;98993.19;;;-1.15;100.00
76257;BME280;65074;50.436;8.672;2022-11-20T05:32:06;98988.63;;;-1.21;100.00
76257;BME280;65074;50.436;8.672;2022-11-20T05:34:34;98987.56;;;-1.26;100.00
76257;BME280;65074;50.436;8.672;2022-11-20T05:36:59;98990.91;;;-1.33;100.00
76257;BME280;65074;50.436;8.672;2022-11-20T05:39:24;98987.91;;;-1.29;100.00
76257;BME280;65074;50.436;8.672;2022-11-20T05:41:50;98985.09;;;-1.28;100.00
76257;BME280;65074;50.436;8.672;2022-11-20T05:44:35;98985.09;;;-1.28;100.00
76257;BME280;65074;50.436;8.672;2022-11-20T05:47:00;98966.09;;;-1.23;100.00
76257;BME280;65074;50.436;8.672;2022-11-20T05:49:26;98961.78;;;-1.10;100.00
76257;BME280;65074;50.436;8.672;2022-11-20T05:51:51;98967.63;;;-1.14;100.00
76257;BME280;65074;50.436;8.672;2022-11-20T05:54:16;98959.50;;;-1.13;100.00
76257;BME280;65074;50.436;8.672;2022-11-20T05:56:42;98956.75;;;-1.05;100.00
76257;BME280;65074;50.436;8.672;2022-11-20T05:59:07;98962.66;;;-1.03;100.00
76257;BME280;65074;50.436;8.672;2022-11-20T06:01:33;98948.69;;;-1.18;100.00
76257;BME280;65074;50.436;8.672;2022-11-20T06:04:01;98942.56;;;-1.04;100.00
76257;BME280;65074;50.436;8.672;2022-11-20T06:06:26;98937.41;;;-1.12;100.00
76257;BME280;65074;50.436;8.672;2022-11-20T06:08:51;98938.56;;;-1.00;100.00
76257;BME280;65074;50.436;8.672;2022-11-20T06:11:17;98943.53;;;-0.90;100.00
76257;BME280;65074;50.436;8.672;2022-11-20T06:13:43;98942.69;;;-0.91;100.00
76257;BME280;65074;50.436;8.672;2022-11-20T06:16:10;98941.59;;;-0.82;100.00
76257;BME280;65074;50.436;8.672;2022-11-20T06:18:36;98936.19;;;-0.74;100.00
76257;BME280;65074;50.436;8.672;2022-11-20T06:21:04;98939.78;;;-0.60;100.00
76257;BME280;65074;50.436;8.672;2022-11-20T06:23:31;98953.81;;;-0.59;100.00
76257;BME280;65074;50.436;8.672;2022-11-20T06:26:00;98958.66;;;-0.63;100.00
76257;BME280;65074;50.436;8.672;2022-11-20T06:28:26;98970.84;;;-0.62;100.00
76257;BME280;65074;50.436;8.672;2022-11-20T06:30:51;98957.44;;;-0.60;100.00
76257;BME280;65074;50.436;8.672;2022-11-20T06:33:17;98952.31;;;-0.47;100.00
76257;BME280;65074;50.436;8.672;2022-11-20T06:35:42;98941.53;;;-0.46;100.00
76257;BME280;65074;50.436;8.672;2022-11-20T06:38:08;98936.25;;;-0.46;100.00
76257;BME280;65074;50.436;8.672;2022-11-20T06:40:33;98948.00;;;-0.48;100.00
76257;BME280;65074;50.436;8.672;2022-11-20T06:42:58;98934.22;;;-0.44;100.00
76257;BME280;65074;50.436;8.672;2022-11-20T06:45:24;98937.31;;;-0.40;100.00
76257;BME280;65074;50.436;8.672;2022-11-20T06:47:49;98938.69;;;-0.44;100.00
76257;BME280;65074;50.436;8.672;2022-11-20T06:50:14;98943.34;;;-0.46;100.00
76257;BME280;65074;50.436;8.672;2022-11-20T06:52:40;98963.28;;;-0.44;100.00
76257;BME280;65074;50.436;8.672;2022-11-20T06:55:05;98952.56;;;-0.42;100.00
76257;BME280;65074;50.436;8.672;2022-11-20T06:57:31;98942.63;;;-0.40;100.00
76257;BME280;65074;50.436;8.672;2022-11-20T06:59:56;98948.16;;;-0.35;100.00
76257;BME280;65074;50.436;8.672;2022-11-20T07:02:22;98939.03;;;-0.33;100.00
76257;BME280;65074;50.436;8.672;2022-11-20T07:04:47;98938.56;;;-0.36;100.00
76257;BME280;65074;50.436;8.672;2022-11-20T07:07:12;98938.56;;;-0.36;100.00
76257;BME280;65074;50.436;8.672;2022-11-20T07:09:38;98936.38;;;-0.33;100.00
76257;BME280;65074;50.436;8.672;2022-11-20T07:12:03;98952.59;;;-0.36;100.00
76257;BME280;65074;50.436;8.672;2022-11-20T07:14:29;98945.66;;;-0.37;100.00
76257;BME280;65074;50.436;8.672;2022-11-20T07:16:54;98938.44;;;-0.28;100.00
76257;BME280;65074;50.436;8.672;2022-11-20T07:19:20;98950.25;;;-0.24;100.00
76257;BME280;65074;50.436;8.672;2022-11-20T07:21:45;98950.66;;;-0.27;100.00
76257;BME280;65074;50.436;8.672;2022-11-20T07:24:10;98949.69;;;-0.20;100.00
76257;BME280;65074;50.436;8.672;2022-11-20T07:26:36;98965.16;;;-0.17;100.00
76257;BME280;65074;50.436;8.672;2022-11-20T07:29:01;98964.22;;;-0.09;100.00
76257;BME280;65074;50.436;8.672;2022-11-20T07:31:26;98967.94;;;-0.04;100.00
76257;BME280;65074;50.436;8.672;2022-11-20T07:33:52;98968.38;;;0.00;100.00
76257;BME280;65074;50.436;8.672;2022-11-20T07:36:17;98963.63;;;-0.05;100.00
76257;BME280;65074;50.436;8.672;2022-11-20T07:38:43;98977.69;;;-0.04;100.00
76257;BME280;65074;50.436;8.672;2022-11-20T07:41:08;98977.06;;;-0.06;100.00
76257;BME280;65074;50.436;8.672;2022-11-20T07:43:34;98977.63;;;-0.11;100.00
76257;BME280;65074;50.436;8.672;2022-11-20T07:45:59;98974.28;;;0.02;100.00
76257;BME280;65074;50.436;8.672;2022-11-20T07:48:25;98974.88;;;-0.03;100.00
76257;BME280;65074;50.436;8.672;2022-11-20T07:50:56;98975.72;;;0.05;100.00
76257;BME280;65074;50.436;8.672;2022-11-20T07:53:23;98979.31;;;-0.03;100.00
76257;BME280;65074;50.436;8.672;2022-11-20T07:55:49;98984.28;;;-0.15;100.00
76257;BME280;65074;50.436;8.672;2022-11-20T07:58:17;98987.72;;;-0.21;100.00
76257;BME280;65074;50.436;8.672;2022-11-20T08:00:42;98979.91;;;-0.29;100.00
76257;BME280;65074;50.436;8.672;2022-11-20T08:03:08;98983.50;;;-0.15;100.00
76257;BME280;65074;50.436;8.672;2022-11-20T08:05:33;98983.56;;;-0.30;100.00
76257;BME280;65074;50.436;8.672;2022-11-20T08:07:59;98982.63;;;-0.43;100.00
76257;BME280;65074;50.436;8.672;2022-11-20T08:10:25;98983.38;;;-0.28;100.00
76257;BME280;65074;50.436;8.672;2022-11-20T08:12:52;98984.19;;;-0.28;100.00
76257;BME280;65074;50.436;8.672;2022-11-20T08:15:37;98980.19;;;-0.17;100.00
76257;BME280;65074;50.436;8.672;2022-11-20T08:18:05;98981.44;;;0.08;100.00
76257;BME280;65074;50.436;8.672;2022-11-20T08:20:31;98982.16;;;0.23;100.00
76257;BME280;65074;50.436;8.672;2022-11-20T08:23:00;98986.75;;;0.42;100.00
76257;BME280;65074;50.436;8.672;2022-11-20T08:25:27;98989.22;;;0.16;100.00
76257;BME280;65074;50.436;8.672;2022-11-20T08:27:53;98985.34;;;0.12;100.00
76257;BME280;65074;50.436;8.672;2022-11-20T08:30:18;98983.81;;;0.24;100.00
76257;BME280;65074;50.436;8.672;2022-11-20T08:32:44;98983.59;;;0.26;100.00
76257;BME280;65074;50.436;8.672;2022-11-20T08:35:09;98990.31;;;0.22;100.00
76257;BME280;65074;50.436;8.672;2022-11-20T08:37:34;99000.38;;;0.12;100.00
76257;BME280;65074;50.436;8.672;2022-11-20T08:40:00;98994.84;;;0.07;100.00
76257;BME280;65074;50.436;8.672;2022-11-20T08:42:25;99001.31;;;-0.03;100.00
76257;BME280;65074;50.436;8.672;2022-11-20T08:44:50;99000.44;;;0.18;100.00
76257;BME280;65074;50.436;8.672;2022-11-20T08:47:16;99002.69;;;0.49;100.00
76257;BME280;65074;50.436;8.672;2022-11-20T08:49:41;99000.84;;;0.49;100.00
76257;BME280;65074;50.436;8.672;2022-11-20T08:52:06;98999.44;;;0.81;100.00
76257;BME280;65074;50.436;8.672;2022-11-20T08:54:32;99008.63;;;0.92;100.00
76257;BME280;65074;50.436;8.672;2022-11-20T08:56:57;99001.72;;;0.97;100.00
76257;BME280;65074;50.436;8.672;2022-11-20T08:59:23;99005.88;;;1.13;100.00
76257;BME280;65074;50.436;8.672;2022-11-20T09:01:48;99008.94;;;1.16;99.09
76257;BME280;65074;50.436;8.672;2022-11-20T09:04:14;99009.84;;;0.89;100.00
76257;BME280;65074;50.436;8.672;2022-11-20T09:06:39;99012.56;;;1.09;99.80
76257;BME280;65074;50.436;8.672;2022-11-20T09:09:05;99016.50;;;1.26;98.67
76257;BME280;65074;50.436;8.672;2022-11-20T09:11:31;99015.59;;;0.99;99.80
76257;BME280;65074;50.436;8.672;2022-11-20T09:13:57;99014.84;;;1.12;99.11
76257;BME280;65074;50.436;8.672;2022-11-20T09:16:22;99020.03;;;1.40;99.91
76257;BME280;65074;50.436;8.672;2022-11-20T09:18:49;99021.81;;;1.26;98.42
76257;BME280;65074;50.436;8.672;2022-11-20T09:21:15;99022.28;;;0.89;100.00
76257;BME280;65074;50.436;8.672;2022-11-20T09:23:40;99011.16;;;0.72;100.00
76257;BME280;65074;50.436;8.672;2022-11-20T09:26:11;99014.97;;;0.97;100.00
76257;BME280;65074;50.436;8.672;2022-11-20T09:28:37;99024.00;;;0.69;100.00
76257;BME280;65074;50.436;8.672;2022-11-20T09:31:09;99007.88;;;1.04;100.00
76257;BME280;65074;50.436;8.672;2022-11-20T09:33:40;99009.59;;;1.31;99.50
76257;BME280;65074;50.436;8.672;2022-11-20T09:36:06;99003.75;;;1.49;99.66
76257;BME280;65074;50.436;8.672;2022-11-20T09:38:31;99017.81;;;1.50;99.07
76257;BME280;65074;50.436;8.672;2022-11-20T09:41:01;99020.69;;;1.61;99.87
76257;BME280;65074;50.436;8.672;2022-11-20T09:43:58;99016.84;;;1.57;99.24
76257;BME280;65074;50.436;8.672;2022-11-20T09:46:57;99020.91;;;1.60;99.18
76257;BME280;65074;50.436;8.672;2022-11-20T09:52:30;99025.19;;;1.54;100.00
76257;BME280;65074;50.436;8.672;2022-11-20T09:55:00;99021.31;;;1.57;100.00
76257;BME280;65074;50.436;8.672;2022-11-20T09:57:40;99012.94;;;1.53;99.51
76257;BME280;65074;50.436;8.672;2022-11-20T10:00:10;99005.41;;;1.63;99.08
76257;BME280;65074;50.436;8.672;2022-11-20T10:02:57;99011.56;;;1.70;100.00
76257;BME280;65074;50.436;8.672;2022-11-20T10:05:31;99015.44;;;1.68;99.83
76257;BME280;65074;50.436;8.672;2022-11-20T10:08:24;99023.28;;;1.35;98.54
76257;BME280;65074;50.436;8.672;2022-11-20T10:11:04;99018.84;;;0.95;100.00
76257;BME280;65074;50.436;8.672;2022-11-20T10:13:42;99019.75;;;1.21;100.00
76257;BME280;65074;50.436;8.672;2022-11-20T10:16:57;99021.50;;;1.01;100.00
76257;BME280;65074;50.436;8.672;2022-11-20T10:25:14;99011.25;;;0.85;100.00
76257;BME280;65074;50.436;8.672;2022-11-20T10:30:14;99013.06;;;1.25;100.00
76257;BME280;65074;50.436;8.672;2022-11-20T10:32:47;99007.84;;;1.52;100.00
76257;BME280;65074;50.436;8.672;2022-11-20T10:37:41;99006.44;;;1.75;100.00
76257;BME280;65074;50.436;8.672;2022-11-20T10:40:21;98998.91;;;1.72;100.00
76257;BME280;65074;50.436;8.672;2022-11-20T10:42:55;98997.06;;;1.66;100.00
76257;BME280;65074;50.436;8.672;2022-11-20T10:47:50;98995.06;;;2.01;99.12
76257;BME280;65074;50.436;8.672;2022-11-20T10:50:19;98991.38;;;1.89;98.86
76257;BME280;65074;50.436;8.672;2022-11-20T10:55:45;98986.84;;;1.50;100.00
76257;BME280;65074;50.436;8.672;2022-11-20T11:01:14;98973.41;;;1.71;100.00
76257;BME280;65074;50.436;8.672;2022-11-20T11:03:41;98980.53;;;1.64;100.00
76257;BME280;65074;50.436;8.672;2022-11-20T11:06:15;98971.78;;;1.77;100.00
76257;BME280;65074;50.436;8.672;2022-11-20T11:08:44;98971.59;;;1.98;100.00
76257;BME280;65074;50.436;8.672;2022-11-20T11:11:22;98959.97;;;2.19;100.00
76257;BME280;65074;50.436;8.672;2022-11-20T11:13:49;98968.31;;;2.29;99.18
76257;BME280;65074;50.436;8.672;2022-11-20T11:16:26;98966.47;;;2.23;99.49
76257;BME280;65074;50.436;8.672;2022-11-20T11:19:04;98961.78;;;2.25;99.25
76257;BME280;65074;50.436;8.672;2022-11-20T11:21:29;98969.34;;;2.21;99.85
76257;BME280;65074;50.436;8.672;2022-11-20T11:24:03;98960.97;;;2.24;99.76
76257;BME280;65074;50.436;8.672;2022-11-20T11:26:29;98951.38;;;2.23;100.00
76257;BME280;65074;50.436;8.672;2022-11-20T11:31:30;98947.72;;;2.24;99.67
76257;BME280;65074;50.436;8.672;2022-11-20T11:34:15;98953.66;;;2.20;99.00
76257;BME280;65074;50.436;8.672;2022-11-20T11:36:41;98942.81;;;2.21;99.69
76257;BME280;65074;50.436;8.672;2022-11-20T11:39:17;98937.28;;;2.29;99.35
76257;BME280;65074;50.436;8.672;2022-11-20T11:41:45;98927.44;;;2.43;98.47
76257;BME280;65074;50.436;8.672;2022-11-20T11:47:02;98940.91;;;2.61;97.56
76257;BME280;65074;50.436;8.672;2022-11-20T11:49:29;98930.13;;;3.00;97.67
76257;BME280;65074;50.436;8.672;2022-11-20T11:52:03;98933.91;;;3.17;95.89
76257;BME280;65074;50.436;8.672;2022-11-20T12:00:10;98920.81;;;3.54;95.22
76257;BME280;65074;50.436;8.672;2022-11-20T12:13:01;98900.66;;;3.02;96.99
76257;BME280;65074;50.436;8.672;2022-11-20T12:15:32;98903.13;;;3.03;98.14
76257;BME280;65074;50.436;8.672;2022-11-20T12:17:58;98900.22;;;3.11;96.83
76257;BME280;65074;50.436;8.672;2022-11-20T12:20:29;98900.31;;;2.92;98.73
76257;BME280;65074;50.436;8.672;2022-11-20T12:23:09;98894.53;;;3.01;98.81
76257;BME280;65074;50.436;8.672;2022-11-20T12:25:43;98898.69;;;2.91;98.27
76257;BME280;65074;50.436;8.672;2022-11-20T12:31:13;98898.78;;;2.71;98.89
76257;BME280;65074;50.436;8.672;2022-11-20T12:36:40;98893.13;;;2.48;99.98
76257;BME280;65074;50.436;8.672;2022-11-20T12:39:33;98896.38;;;2.50;100.00
76257;BME280;65074;50.436;8.672;2022-11-20T12:46:01;98886.19;;;2.47;100.00
76257;BME280;65074;50.436;8.672;2022-11-20T12:48:03;98898.28;;;2.36;100.00
76257;BME280;65074;50.436;8.672;2022-11-20T12:50:55;98900.94;;;2.36;100.00
76257;BME280;65074;50.436;8.672;2022-11-20T12:53:59;98889.94;;;2.26;100.00
76257;BME280;65074;50.436;8.672;2022-11-20T12:56:46;98885.41;;;2.46;100.00
76257;BME280;65074;50.436;8.672;2022-11-20T13:07:38;98876.41;;;2.41;100.00
76257;BME280;65074;50.436;8.672;2022-11-20T13:10:05;98875.41;;;2.35;100.00
76257;BME280;65074;50.436;8.672;2022-11-20T13:12:48;98871.94;;;2.35;100.00
76257;BME280;65074;50.436;8.672;2022-11-20T13:15:36;98872.75;;;2.42;100.00
76257;BME280;65074;50.436;8.672;2022-11-20T13:18:08;98866.19;;;2.51;100.00
76257;BME280;65074;50.436;8.672;2022-11-20T13:20:36;98863.84;;;2.68;100.00
76257;BME280;65074;50.436;8.672;2022-11-20T13:23:06;98857.00;;;2.40;100.00
76257;BME280;65074;50.436;8.672;2022-11-20T13:25:40;98852.72;;;2.46;100.00
76257;BME280;65074;50.436;8.672;2022-11-20T13:30:48;98838.16;;;2.55;100.00
76257;BME280;65074;50.436;8.672;2022-11-20T13:33:32;98848.41;;;2.51;100.00
76257;BME280;65074;50.436;8.672;2022-11-20T13:36:02;98851.69;;;2.47;100.00
76257;BME280;65074;50.436;8.672;2022-11-20T13:38:39;98844.34;;;2.42;100.00
76257;BME280;65074;50.436;8.672;2022-11-20T13:41:07;98849.03;;;2.47;100.00
76257;BME280;65074;50.436;8.672;2022-11-20T13:43:54;98839.41;;;2.59;100.00
76257;BME280;65074;50.436;8.672;2022-11-20T13:46:22;98835.59;;;2.42;100.00
76257;BME280;65074;50.436;8.672;2022-11-20T13:48:51;98839.28;;;2.34;100.00
76257;BME280;65074;50.436;8.672;2022-11-20T13:51:28;98833.75;;;2.36;100.00
76257;BME280;65074;50.436;8.672;2022-11-20T13:54:22;98832.56;;;2.32;100.00
76257;BME280;65074;50.436;8.672;2022-11-20T13:59:53;98831.34;;;2.34;100.00
76257;BME280;65074;50.436;8.672;2022-11-20T14:02:23;98817.81;;;2.42;100.00
76257;BME280;65074;50.436;8.672;2022-11-20T14:04:52;98818.63;;;2.43;100.00
76257;BME280;65074;50.436;8.672;2022-11-20T14:07:20;98812.31;;;2.44;100.00
76257;BME280;65074;50.436;8.672;2022-11-20T14:09:52;98806.41;;;2.42;100.00
76257;BME280;65074;50.436;8.672;2022-11-20T14:12:20;98811.84;;;2.47;100.00
76257;BME280;65074;50.436;8.672;2022-11-20T14:14:53;98801.72;;;2.31;100.00
76257;BME280;65074;50.436;8.672;2022-11-20T14:19:54;98802.72;;;2.36;100.00